sensor_id;sensor_type;location;lat;lon;timestamp;pressure;altitude;pressure_sealevel;temperature;humidity
21817;BME280;13247;47.504;7.382;2023-06-14T00:00:45;96692.22;;;13.77;95.72
21817;BME280;13247;47.504;7.382;2023-06-14T00:03:30;96698.44;;;13.76;97.27
21817;BME280;13247;47.504;7.382;2023-06-14T00:06:16;96700.50;;;13.87;95.09
21817;BME280;13247;47.504;7.382;2023-06-14T00:09:02;96699.72;;;13.85;94.58
21817;BME280;13247;47.504;7.382;2023-06-14T00:11:47;96703.63;;;13.78;95.42
21817;BME280;13247;47.504;7.382;2023-06-14T00:14:32;96700.50;;;13.87;93.75
21817;BME280;13247;47.504;7.382;2023-06-14T00:17:17;96700.53;;;13.70;97.70
21817;BME280;13247;47.504;7.382;2023-06-14T00:20:03;96701.47;;;13.69;98.11
21817;BME280;13247;47.504;7.382;2023-06-14T00:22:52;96698.06;;;13.67;98.72
21817;BME280;13247;47.504;7.382;2023-06-14T00:25:36;96692.78;;;13.67;98.51
21817;BME280;13247;47.504;7.382;2023-06-14T00:28:21;96693.81;;;13.31;99.61
21817;BME280;13247;47.504;7.382;2023-06-14T00:31:06;96702.69;;;13.46;96.76
21817;BME280;13247;47.504;7.382;2023-06-14T00:33:50;96700.25;;;13.43;95.81
21817;BME280;13247;47.504;7.382;2023-06-14T00:36:35;96692.22;;;13.12;100.00
21817;BME280;13247;47.504;7.382;2023-06-14T00:39:19;96703.91;;;12.89;100.00
21817;BME280;13247;47.504;7.382;2023-06-14T00:42:04;96699.72;;;12.85;100.00
21817;BME280;13247;47.504;7.382;2023-06-14T00:44:50;96699.09;;;12.97;100.00
21817;BME280;13247;47.504;7.382;2023-06-14T00:47:36;96700.94;;;12.95;100.00
21817;BME280;13247;47.504;7.382;2023-06-14T00:50:22;96704.03;;;12.86;100.00
21817;BME280;13247;47.504;7.382;2023-06-14T00:53:07;96700.63;;;12.84;100.00
21817;BME280;13247;47.504;7.382;2023-06-14T00:55:52;96696.22;;;13.02;100.00
21817;BME280;13247;47.504;7.382;2023-06-14T00:58:37;96702.09;;;12.73;100.00
21817;BME280;13247;47.504;7.382;2023-06-14T01:01:22;96702.09;;;12.73;100.00
21817;BME280;13247;47.504;7.382;2023-06-14T01:04:08;96700.66;;;12.67;100.00
21817;BME280;13247;47.504;7.382;2023-06-14T01:07:11;96701.97;;;12.40;100.00
21817;BME280;13247;47.504;7.382;2023-06-14T01:12:50;96701.50;;;12.32;100.00
21817;BME280;13247;47.504;7.382;2023-06-14T01:15:38;96703.91;;;12.36;100.00
21817;BME280;13247;47.504;7.382;2023-06-14T01:18:23;96700.50;;;12.34;100.00
21817;BME280;13247;47.504;7.382;2023-06-14T01:21:24;96700.66;;;12.31;100.00
21817;BME280;13247;47.504;7.382;2023-06-14T01:24:09;96701.19;;;12.38;100.00
21817;BME280;13247;47.504;7.382;2023-06-14T01:26:56;96706.66;;;12.52;100.00
21817;BME280;13247;47.504;7.382;2023-06-14T01:29:41;96698.13;;;12.47;100.00
21817;BME280;13247;47.504;7.382;2023-06-14T01:32:30;96705.28;;;12.62;100.00
21817;BME280;13247;47.504;7.382;2023-06-14T01:35:15;96703.69;;;12.41;100.00
21817;BME280;13247;47.504;7.382;2023-06-14T01:38:00;96700.44;;;12.36;100.00
21817;BME280;13247;47.504;7.382;2023-06-14T01:40:47;96706.56;;;12.53;100.00
21817;BME280;13247;47.504;7.382;2023-06-14T01:43:34;96709.66;;;12.44;100.00
21817;BME280;13247;47.504;7.382;2023-06-14T01:46:20;96708.09;;;12.40;100.00
21817;BME280;13247;47.504;7.382;2023-06-14T01:49:04;96701.53;;;12.49;100.00
21817;BME280;13247;47.504;7.382;2023-06-14T01:51:49;96698.22;;;12.45;100.00
21817;BME280;13247;47.504;7.382;2023-06-14T01:54:33;96702.41;;;12.49;100.00
21817;BME280;13247;47.504;7.382;2023-06-14T01:57:18;96702.78;;;12.23;100.00
21817;BME280;13247;47.504;7.382;2023-06-14T02:00:05;96703.03;;;12.00;100.00
21817;BME280;13247;47.504;7.382;2023-06-14T02:02:57;96696.13;;;11.98;100.00
21817;BME280;13247;47.504;7.382;2023-06-14T02:05:41;96700.50;;;11.99;100.00
21817;BME280;13247;47.504;7.382;2023-06-14T02:08:26;96703.53;;;12.08;100.00
21817;BME280;13247;47.504;7.382;2023-06-14T02:11:10;96695.94;;;11.83;100.00
21817;BME280;13247;47.504;7.382;2023-06-14T02:13:55;96708.22;;;11.83;100.00
21817;BME280;13247;47.504;7.382;2023-06-14T02:16:40;96703.19;;;11.78;100.00
21817;BME280;13247;47.504;7.382;2023-06-14T02:19:25;96702.94;;;11.64;100.00
21817;BME280;13247;47.504;7.382;2023-06-14T02:22:09;96708.19;;;11.64;100.00
21817;BME280;13247;47.504;7.382;2023-06-14T02:24:54;96710.72;;;11.47;100.00
21817;BME280;13247;47.504;7.382;2023-06-14T02:27:38;96712.63;;;11.44;100.00
21817;BME280;13247;47.504;7.382;2023-06-14T02:30:23;96711.19;;;11.37;100.00
21817;BME280;13247;47.504;7.382;2023-06-14T02:33:07;96712.22;;;11.14;100.00
21817;BME280;13247;47.504;7.382;2023-06-14T02:35:52;96710.25;;;11.19;100.00
21817;BME280;13247;47.504;7.382;2023-06-14T02:38:37;96714.44;;;11.23;100.00
21817;BME280;13247;47.504;7.382;2023-06-14T02:41:21;96710.91;;;11.43;100.00
21817;BME280;13247;47.504;7.382;2023-06-14T02:44:07;96715.03;;;11.30;100.00
21817;BME280;13247;47.504;7.382;2023-06-14T02:46:52;96709.94;;;11.45;100.00
21817;BME280;13247;47.504;7.382;2023-06-14T02:49:37;96716.41;;;11.38;100.00
21817;BME280;13247;47.504;7.382;2023-06-14T02:52:21;96718.19;;;11.56;100.00
21817;BME280;13247;47.504;7.382;2023-06-14T02:55:06;96717.44;;;11.34;100.00
21817;BME280;13247;47.504;7.382;2023-06-14T02:57:52;96718.94;;;11.40;100.00
21817;BME280;13247;47.504;7.382;2023-06-14T03:00:38;96721.38;;;11.24;100.00
21817;BME280;13247;47.504;7.382;2023-06-14T03:03:23;96721.66;;;11.18;100.00
21817;BME280;13247;47.504;7.382;2023-06-14T03:06:09;96720.88;;;10.96;100.00
21817;BME280;13247;47.504;7.382;2023-06-14T03:08:58;96715.38;;;11.02;100.00
21817;BME280;13247;47.504;7.382;2023-06-14T03:11:48;96726.59;;;10.85;100.00
21817;BME280;13247;47.504;7.382;2023-06-14T03:14:33;96721.78;;;10.95;100.00
21817;BME280;13247;47.504;7.382;2023-06-14T03:17:19;96723.50;;;10.96;100.00
21817;BME280;13247;47.504;7.382;2023-06-14T03:20:04;96727.03;;;10.95;100.00
21817;BME280;13247;47.504;7.382;2023-06-14T03:22:50;96736.34;;;11.22;100.00
21817;BME280;13247;47.504;7.382;2023-06-14T03:25:34;96727.41;;;11.26;100.00
21817;BME280;13247;47.504;7.382;2023-06-14T03:28:20;96731.88;;;11.24;100.00
21817;BME280;13247;47.504;7.382;2023-06-14T03:31:04;96734.63;;;11.01;100.00
21817;BME280;13247;47.504;7.382;2023-06-14T03:33:49;96750.06;;;10.88;100.00
21817;BME280;13247;47.504;7.382;2023-06-14T03:36:34;96741.47;;;10.85;100.00
21817;BME280;13247;47.504;7.382;2023-06-14T03:39:19;96747.81;;;10.79;100.00
21817;BME280;13247;47.504;7.382;2023-06-14T03:42:04;96754.91;;;10.97;100.00
21817;BME280;13247;47.504;7.382;2023-06-14T03:44:49;96750.91;;;10.89;100.00
21817;BME280;13247;47.504;7.382;2023-06-14T03:47:34;96755.72;;;10.58;100.00
21817;BME280;13247;47.504;7.382;2023-06-14T03:50:19;96754.00;;;10.13;100.00
21817;BME280;13247;47.504;7.382;2023-06-14T03:53:05;96758.63;;;10.28;100.00
21817;BME280;13247;47.504;7.382;2023-06-14T03:55:50;96756.53;;;10.58;100.00
21817;BME280;13247;47.504;7.382;2023-06-14T03:58:36;96756.63;;;10.57;100.00
21817;BME280;13247;47.504;7.382;2023-06-14T04:01:21;96764.63;;;10.54;100.00
21817;BME280;13247;47.504;7.382;2023-06-14T04:04:14;96760.31;;;10.73;100.00
21817;BME280;13247;47.504;7.382;2023-06-14T04:07:00;96766.75;;;10.66;100.00
21817;BME280;13247;47.504;7.382;2023-06-14T04:09:48;96769.00;;;10.75;100.00
21817;BME280;13247;47.504;7.382;2023-06-14T04:12:32;96780.81;;;10.85;100.00
21817;BME280;13247;47.504;7.382;2023-06-14T04:15:17;96775.41;;;10.88;100.00
21817;BME280;13247;47.504;7.382;2023-06-14T04:18:02;96779.31;;;10.58;100.00
21817;BME280;13247;47.504;7.382;2023-06-14T04:20:46;96776.00;;;10.94;100.00
21817;BME280;13247;47.504;7.382;2023-06-14T04:23:31;96783.34;;;10.86;100.00
21817;BME280;13247;47.504;7.382;2023-06-14T04:26:17;96784.34;;;10.84;100.00
21817;BME280;13247;47.504;7.382;2023-06-14T04:29:04;96787.13;;;11.01;100.00
21817;BME280;13247;47.504;7.382;2023-06-14T04:31:48;96792.84;;;11.11;100.00
21817;BME280;13247;47.504;7.382;2023-06-14T04:34:34;96788.41;;;11.11;100.00
21817;BME280;13247;47.504;7.382;2023-06-14T04:37:18;96799.72;;;11.33;100.00
21817;BME280;13247;47.504;7.382;2023-06-14T04:40:03;96797.41;;;11.26;100.00
21817;BME280;13247;47.504;7.382;2023-06-14T04:42:51;96801.41;;;11.34;100.00
21817;BME280;13247;47.504;7.382;2023-06-14T04:45:37;96807.81;;;11.49;100.00
21817;BME280;13247;47.504;7.382;2023-06-14T04:48:22;96810.59;;;11.64;100.00
21817;BME280;13247;47.504;7.382;2023-06-14T04:51:08;96812.94;;;11.72;100.00
21817;BME280;13247;47.504;7.382;2023-06-14T04:53:53;96814.25;;;11.82;100.00
21817;BME280;13247;47.504;7.382;2023-06-14T04:56:41;96807.44;;;11.97;100.00
21817;BME280;13247;47.504;7.382;2023-06-14T04:59:31;96810.69;;;12.02;100.00
21817;BME280;13247;47.504;7.382;2023-06-14T05:02:17;96810.97;;;11.96;100.00
21817;BME280;13247;47.504;7.382;2023-06-14T05:05:02;96819.50;;;12.01;100.00
21817;BME280;13247;47.504;7.382;2023-06-14T05:07:46;96814.06;;;12.05;100.00
21817;BME280;13247;47.504;7.382;2023-06-14T05:10:31;96816.00;;;12.20;100.00
21817;BME280;13247;47.504;7.382;2023-06-14T05:13:15;96820.31;;;12.21;100.00
21817;BME280;13247;47.504;7.382;2023-06-14T05:16:00;96815.50;;;12.31;100.00
21817;BME280;13247;47.504;7.382;2023-06-14T05:18:46;96818.75;;;12.36;100.00
21817;BME280;13247;47.504;7.382;2023-06-14T05:21:32;96813.03;;;12.63;100.00
21817;BME280;13247;47.504;7.382;2023-06-14T05:24:19;96818.06;;;12.68;100.00
21817;BME280;13247;47.504;7.382;2023-06-14T05:27:04;96817.81;;;12.91;97.84
21817;BME280;13247;47.504;7.382;2023-06-14T05:29:50;96820.31;;;12.94;97.48
21817;BME280;13247;47.504;7.382;2023-06-14T05:32:35;96818.03;;;13.05;96.72
21817;BME280;13247;47.504;7.382;2023-06-14T05:35:19;96813.41;;;13.27;95.91
21817;BME280;13247;47.504;7.382;2023-06-14T05:38:06;96819.34;;;13.31;97.92
21817;BME280;13247;47.504;7.382;2023-06-14T05:40:52;96823.22;;;13.41;96.85
21817;BME280;13247;47.504;7.382;2023-06-14T05:43:37;96828.25;;;13.46;91.44
21817;BME280;13247;47.504;7.382;2023-06-14T05:46:23;96822.53;;;13.55;97.47
21817;BME280;13247;47.504;7.382;2023-06-14T05:49:11;96823.59;;;13.85;90.56
21817;BME280;13247;47.504;7.382;2023-06-14T05:51:56;96824.66;;;13.98;90.71
21817;BME280;13247;47.504;7.382;2023-06-14T05:54:41;96824.59;;;14.15;92.12
21817;BME280;13247;47.504;7.382;2023-06-14T05:57:26;96823.25;;;14.56;88.98
21817;BME280;13247;47.504;7.382;2023-06-14T06:00:11;96823.75;;;14.63;90.29
21817;BME280;13247;47.504;7.382;2023-06-14T06:02:58;96816.78;;;14.77;82.87
21817;BME280;13247;47.504;7.382;2023-06-14T06:05:43;96817.69;;;14.76;82.80
21817;BME280;13247;47.504;7.382;2023-06-14T06:08:28;96822.19;;;14.74;80.39
21817;BME280;13247;47.504;7.382;2023-06-14T06:11:13;96830.72;;;14.79;79.34
21817;BME280;13247;47.504;7.382;2023-06-14T06:13:57;96838.19;;;15.18;80.18
21817;BME280;13247;47.504;7.382;2023-06-14T06:16:42;96835.97;;;15.11;83.48
21817;BME280;13247;47.504;7.382;2023-06-14T06:19:27;96846.03;;;15.20;85.95
21817;BME280;13247;47.504;7.382;2023-06-14T06:22:11;96836.09;;;15.39;88.48
21817;BME280;13247;47.504;7.382;2023-06-14T06:24:56;96836.41;;;15.48;87.08
21817;BME280;13247;47.504;7.382;2023-06-14T06:27:40;96834.97;;;15.58;88.44
21817;BME280;13247;47.504;7.382;2023-06-14T06:30:25;96831.97;;;15.79;84.63
21817;BME280;13247;47.504;7.382;2023-06-14T06:33:10;96844.81;;;15.99;78.84
21817;BME280;13247;47.504;7.382;2023-06-14T06:35:56;96844.28;;;16.08;78.19
21817;BME280;13247;47.504;7.382;2023-06-14T06:38:40;96844.84;;;16.27;74.09
21817;BME280;13247;47.504;7.382;2023-06-14T06:41:25;96845.75;;;16.56;68.12
21817;BME280;13247;47.504;7.382;2023-06-14T06:44:11;96846.28;;;16.75;66.21
21817;BME280;13247;47.504;7.382;2023-06-14T06:46:58;96846.53;;;16.84;66.59
21817;BME280;13247;47.504;7.382;2023-06-14T06:49:42;96850.19;;;16.96;66.77
21817;BME280;13247;47.504;7.382;2023-06-14T06:52:27;96857.88;;;17.13;65.67
21817;BME280;13247;47.504;7.382;2023-06-14T06:55:11;96856.16;;;17.26;68.90
21817;BME280;13247;47.504;7.382;2023-06-14T06:57:57;96857.13;;;17.52;65.64
21817;BME280;13247;47.504;7.382;2023-06-14T07:00:42;96852.59;;;17.66;62.97
21817;BME280;13247;47.504;7.382;2023-06-14T07:03:26;96862.16;;;17.69;64.23
21817;BME280;13247;47.504;7.382;2023-06-14T07:06:11;96860.13;;;17.72;63.21
21817;BME280;13247;47.504;7.382;2023-06-14T07:08:56;96853.66;;;17.76;63.42
21817;BME280;13247;47.504;7.382;2023-06-14T07:11:46;96850.84;;;18.04;61.54
21817;BME280;13247;47.504;7.382;2023-06-14T07:14:31;96854.34;;;18.05;62.80
21817;BME280;13247;47.504;7.382;2023-06-14T07:17:16;96861.16;;;18.22;61.51
21817;BME280;13247;47.504;7.382;2023-06-14T07:20:01;96865.81;;;18.43;62.37
21817;BME280;13247;47.504;7.382;2023-06-14T07:22:56;96868.41;;;18.45;63.88
21817;BME280;13247;47.504;7.382;2023-06-14T07:25:40;96864.56;;;18.49;61.64
21817;BME280;13247;47.504;7.382;2023-06-14T07:28:25;96861.97;;;18.85;59.17
21817;BME280;13247;47.504;7.382;2023-06-14T07:31:09;96865.16;;;18.90;60.34
21817;BME280;13247;47.504;7.382;2023-06-14T07:33:54;96862.34;;;19.04;59.70
21817;BME280;13247;47.504;7.382;2023-06-14T07:36:39;96862.91;;;19.20;58.47
21817;BME280;13247;47.504;7.382;2023-06-14T07:39:24;96858.13;;;19.25;58.98
21817;BME280;13247;47.504;7.382;2023-06-14T07:42:09;96861.38;;;19.41;57.18
21817;BME280;13247;47.504;7.382;2023-06-14T07:44:53;96858.91;;;19.62;57.97
21817;BME280;13247;47.504;7.382;2023-06-14T07:47:38;96857.75;;;19.77;56.56
21817;BME280;13247;47.504;7.382;2023-06-14T07:50:23;96861.03;;;19.70;55.75
21817;BME280;13247;47.504;7.382;2023-06-14T07:53:08;96864.41;;;19.72;55.74
21817;BME280;13247;47.504;7.382;2023-06-14T07:55:53;96855.63;;;19.82;54.47
21817;BME280;13247;47.504;7.382;2023-06-14T07:58:38;96863.38;;;20.20;55.08
21817;BME280;13247;47.504;7.382;2023-06-14T08:01:23;96861.88;;;20.16;53.16
21817;BME280;13247;47.504;7.382;2023-06-14T08:04:09;96866.31;;;20.50;52.81
21817;BME280;13247;47.504;7.382;2023-06-14T08:06:54;96853.75;;;20.63;53.09
21817;BME280;13247;47.504;7.382;2023-06-14T08:09:39;96853.47;;;20.77;51.43
21817;BME280;13247;47.504;7.382;2023-06-14T08:12:24;96853.47;;;20.77;51.48
21817;BME280;13247;47.504;7.382;2023-06-14T08:15:09;96855.91;;;21.02;50.08
21817;BME280;13247;47.504;7.382;2023-06-14T08:17:54;96854.69;;;21.18;49.63
21817;BME280;13247;47.504;7.382;2023-06-14T08:20:39;96857.31;;;21.29;49.07
21817;BME280;13247;47.504;7.382;2023-06-14T08:23:24;96859.94;;;21.40;46.48
21817;BME280;13247;47.504;7.382;2023-06-14T08:26:10;96863.13;;;21.34;45.12
21817;BME280;13247;47.504;7.382;2023-06-14T08:28:55;96864.78;;;21.46;45.02
21817;BME280;13247;47.504;7.382;2023-06-14T08:31:40;96861.69;;;21.19;46.28
21817;BME280;13247;47.504;7.382;2023-06-14T08:34:25;96866.09;;;21.51;43.81
21817;BME280;13247;47.504;7.382;2023-06-14T08:37:10;96868.47;;;21.97;42.89
21817;BME280;13247;47.504;7.382;2023-06-14T08:39:55;96858.78;;;21.96;43.34
21817;BME280;13247;47.504;7.382;2023-06-14T08:42:40;96861.66;;;22.04;42.16
21817;BME280;13247;47.504;7.382;2023-06-14T08:45:26;96859.50;;;21.98;43.13
21817;BME280;13247;47.504;7.382;2023-06-14T08:48:11;96857.59;;;22.30;43.44
21817;BME280;13247;47.504;7.382;2023-06-14T08:50:56;96857.31;;;22.54;42.28
21817;BME280;13247;47.504;7.382;2023-06-14T08:53:46;96860.69;;;22.26;41.44
21817;BME280;13247;47.504;7.382;2023-06-14T08:56:38;96865.34;;;22.54;41.66
21817;BME280;13247;47.504;7.382;2023-06-14T08:59:25;96858.75;;;22.79;41.32
21817;BME280;13247;47.504;7.382;2023-06-14T09:02:11;96866.19;;;22.75;40.16
21817;BME280;13247;47.504;7.382;2023-06-14T09:04:57;96857.25;;;23.35;40.71
21817;BME280;13247;47.504;7.382;2023-06-14T09:07:44;96854.00;;;23.31;39.76
21817;BME280;13247;47.504;7.382;2023-06-14T09:10:29;96860.00;;;23.24;40.54
21817;BME280;13247;47.504;7.382;2023-06-14T09:16:03;96857.72;;;23.78;40.07
21817;BME280;13247;47.504;7.382;2023-06-14T09:18:49;96856.16;;;23.66;39.95
21817;BME280;13247;47.504;7.382;2023-06-14T09:21:34;96857.91;;;24.05;36.99
21817;BME280;13247;47.504;7.382;2023-06-14T09:24:21;96861.09;;;23.61;38.19
21817;BME280;13247;47.504;7.382;2023-06-14T09:27:05;96852.78;;;23.64;37.45
21817;BME280;13247;47.504;7.382;2023-06-14T09:29:50;96858.72;;;24.06;37.05
21817;BME280;13247;47.504;7.382;2023-06-14T09:32:39;96858.41;;;23.99;36.76
21817;BME280;13247;47.504;7.382;2023-06-14T09:35:26;96861.50;;;23.47;37.57
21817;BME280;13247;47.504;7.382;2023-06-14T09:38:14;96857.44;;;23.91;37.98
21817;BME280;13247;47.504;7.382;2023-06-14T09:40:59;96857.59;;;23.89;37.23
21817;BME280;13247;47.504;7.382;2023-06-14T09:43:44;96868.97;;;23.04;37.47
21817;BME280;13247;47.504;7.382;2023-06-14T09:46:30;96864.03;;;23.39;36.98
21817;BME280;13247;47.504;7.382;2023-06-14T09:49:15;96865.47;;;23.81;36.55
21817;BME280;13247;47.504;7.382;2023-06-14T09:52:00;96870.81;;;23.62;36.35
21817;BME280;13247;47.504;7.382;2023-06-14T09:54:48;96870.00;;;23.22;38.19
21817;BME280;13247;47.504;7.382;2023-06-14T09:57:35;96871.81;;;23.52;37.17
21817;BME280;13247;47.504;7.382;2023-06-14T10:00:21;96867.47;;;24.08;37.04
21817;BME280;13247;47.504;7.382;2023-06-14T10:03:13;96860.75;;;25.06;34.96
21817;BME280;13247;47.504;7.382;2023-06-14T10:06:03;96855.44;;;24.31;37.42
21817;BME280;13247;47.504;7.382;2023-06-14T10:08:53;96863.50;;;23.83;37.29
21817;BME280;13247;47.504;7.382;2023-06-14T10:11:39;96855.28;;;24.42;36.70
21817;BME280;13247;47.504;7.382;2023-06-14T10:14:29;96855.34;;;23.75;37.29
21817;BME280;13247;47.504;7.382;2023-06-14T10:17:34;96850.66;;;24.35;36.45
21817;BME280;13247;47.504;7.382;2023-06-14T10:21:25;96848.53;;;25.21;35.08
21817;BME280;13247;47.504;7.382;2023-06-14T10:23:52;96851.97;;;23.92;36.07
21817;BME280;13247;47.504;7.382;2023-06-14T10:26:54;96855.56;;;24.49;36.47
21817;BME280;13247;47.504;7.382;2023-06-14T10:33:07;96844.31;;;25.19;35.02
21817;BME280;13247;47.504;7.382;2023-06-14T10:36:28;96853.06;;;25.83;33.00
21817;BME280;13247;47.504;7.382;2023-06-14T10:39:20;96843.84;;;25.50;34.19
21817;BME280;13247;47.504;7.382;2023-06-14T10:42:06;96848.47;;;24.57;35.52
21817;BME280;13247;47.504;7.382;2023-06-14T10:44:58;96859.75;;;25.07;34.75
21817;BME280;13247;47.504;7.382;2023-06-14T10:47:49;96850.53;;;24.82;34.64
21817;BME280;13247;47.504;7.382;2023-06-14T10:50:36;96841.66;;;25.63;32.92
21817;BME280;13247;47.504;7.382;2023-06-14T10:53:27;96842.13;;;25.77;33.89
21817;BME280;13247;47.504;7.382;2023-06-14T10:56:27;96834.41;;;26.17;33.10
21817;BME280;13247;47.504;7.382;2023-06-14T10:59:12;96840.72;;;26.51;34.00
21817;BME280;13247;47.504;7.382;2023-06-14T11:02:45;96834.69;;;25.43;33.73
21817;BME280;13247;47.504;7.382;2023-06-14T11:05:48;96839.25;;;25.60;33.45
21817;BME280;13247;47.504;7.382;2023-06-14T11:11:42;96839.31;;;24.97;33.23
21817;BME280;13247;47.504;7.382;2023-06-14T11:14:30;96828.34;;;25.44;33.48
21817;BME280;13247;47.504;7.382;2023-06-14T11:17:16;96827.03;;;26.19;32.68
21817;BME280;13247;47.504;7.382;2023-06-14T11:20:13;96828.28;;;25.89;32.05
21817;BME280;13247;47.504;7.382;2023-06-14T11:23:02;96831.41;;;25.49;33.21
21817;BME280;13247;47.504;7.382;2023-06-14T11:25:51;96834.59;;;25.35;33.55
21817;BME280;13247;47.504;7.382;2023-06-14T11:28:40;96827.22;;;25.37;33.29
21817;BME280;13247;47.504;7.382;2023-06-14T11:31:29;96819.97;;;25.20;33.57
21817;BME280;13247;47.504;7.382;2023-06-14T11:34:14;96818.59;;;25.43;32.29
21817;BME280;13247;47.504;7.382;2023-06-14T11:37:00;96824.13;;;25.95;33.02
21817;BME280;13247;47.504;7.382;2023-06-14T11:39:45;96817.50;;;26.24;31.96
21817;BME280;13247;47.504;7.382;2023-06-14T11:42:30;96816.06;;;26.38;32.48
21817;BME280;13247;47.504;7.382;2023-06-14T11:45:14;96822.25;;;26.30;32.73
21817;BME280;13247;47.504;7.382;2023-06-14T11:47:59;96813.50;;;27.13;30.76
21817;BME280;13247;47.504;7.382;2023-06-14T11:50:44;96808.94;;;27.14;31.25
21817;BME280;13247;47.504;7.382;2023-06-14T11:53:29;96819.84;;;26.02;31.84
21817;BME280;13247;47.504;7.382;2023-06-14T11:56:15;96813.94;;;25.81;32.53
21817;BME280;13247;47.504;7.382;2023-06-14T11:59:02;96810.19;;;26.60;31.42
21817;BME280;13247;47.504;7.382;2023-06-14T12:01:48;96803.00;;;27.44;31.33
21817;BME280;13247;47.504;7.382;2023-06-14T12:04:33;96812.56;;;26.63;31.68
21817;BME280;13247;47.504;7.382;2023-06-14T12:07:17;96804.31;;;26.90;31.13
21817;BME280;13247;47.504;7.382;2023-06-14T12:10:06;96801.41;;;27.17;30.47
21817;BME280;13247;47.504;7.382;2023-06-14T12:12:57;96801.56;;;26.82;30.93
21817;BME280;13247;47.504;7.382;2023-06-14T12:15:43;96799.72;;;26.57;31.17
21817;BME280;13247;47.504;7.382;2023-06-14T12:18:35;96797.94;;;26.99;31.12
21817;BME280;13247;47.504;7.382;2023-06-14T12:21:23;96802.50;;;27.41;31.76
21817;BME280;13247;47.504;7.382;2023-06-14T12:24:08;96803.94;;;26.85;32.11
21817;BME280;13247;47.504;7.382;2023-06-14T12:26:59;96794.09;;;27.02;31.00
21817;BME280;13247;47.504;7.382;2023-06-14T12:29:44;96796.72;;;27.28;31.24
21817;BME280;13247;47.504;7.382;2023-06-14T12:32:29;96801.16;;;26.69;30.53
21817;BME280;13247;47.504;7.382;2023-06-14T12:35:14;96787.56;;;27.70;30.48
21817;BME280;13247;47.504;7.382;2023-06-14T12:37:59;96799.03;;;26.81;30.59
21817;BME280;13247;47.504;7.382;2023-06-14T12:40:44;96787.63;;;27.29;30.33
21817;BME280;13247;47.504;7.382;2023-06-14T12:43:29;96783.69;;;27.07;31.02
21817;BME280;13247;47.504;7.382;2023-06-14T12:46:14;96791.34;;;26.60;31.05
21817;BME280;13247;47.504;7.382;2023-06-14T12:48:59;96790.75;;;27.08;31.04
21817;BME280;13247;47.504;7.382;2023-06-14T12:51:44;96777.03;;;26.85;30.24
21817;BME280;13247;47.504;7.382;2023-06-14T12:54:28;96777.63;;;27.71;28.58
21817;BME280;13247;47.504;7.382;2023-06-14T12:57:13;96790.31;;;27.29;31.14
21817;BME280;13247;47.504;7.382;2023-06-14T12:59:59;96799.09;;;27.31;30.79
21817;BME280;13247;47.504;7.382;2023-06-14T13:02:44;96795.13;;;27.59;30.39
21817;BME280;13247;47.504;7.382;2023-06-14T13:05:29;96788.44;;;28.03;29.89
21817;BME280;13247;47.504;7.382;2023-06-14T13:08:15;96785.38;;;27.82;29.67
21817;BME280;13247;47.504;7.382;2023-06-14T13:11:00;96790.13;;;28.36;29.05
21817;BME280;13247;47.504;7.382;2023-06-14T13:13:44;96788.53;;;28.66;29.84
21817;BME280;13247;47.504;7.382;2023-06-14T13:16:29;96785.81;;;28.82;29.45
21817;BME280;13247;47.504;7.382;2023-06-14T13:19:17;96790.38;;;27.37;31.43
21817;BME280;13247;47.504;7.382;2023-06-14T13:22:02;96788.38;;;27.55;30.27
21817;BME280;13247;47.504;7.382;2023-06-14T13:24:47;96788.41;;;27.71;30.51
21817;BME280;13247;47.504;7.382;2023-06-14T13:27:31;96789.09;;;28.29;29.32
21817;BME280;13247;47.504;7.382;2023-06-14T13:30:16;96789.03;;;28.53;29.31
21817;BME280;13247;47.504;7.382;2023-06-14T13:33:01;96785.69;;;29.06;29.22
21817;BME280;13247;47.504;7.382;2023-06-14T13:35:46;96784.69;;;28.60;29.74
21817;BME280;13247;47.504;7.382;2023-06-14T13:38:30;96791.00;;;28.05;29.50
21817;BME280;13247;47.504;7.382;2023-06-14T13:41:15;96791.28;;;28.34;29.60
21817;BME280;13247;47.504;7.382;2023-06-14T13:44:00;96793.09;;;28.73;29.30
21817;BME280;13247;47.504;7.382;2023-06-14T13:46:45;96794.69;;;28.04;30.87
21817;BME280;13247;47.504;7.382;2023-06-14T13:49:30;96799.56;;;28.40;29.28
21817;BME280;13247;47.504;7.382;2023-06-14T13:52:15;96795.16;;;29.10;28.47
21817;BME280;13247;47.504;7.382;2023-06-14T13:55:00;96788.44;;;28.98;28.51
21817;BME280;13247;47.504;7.382;2023-06-14T13:57:45;96792.34;;;29.65;27.44
21817;BME280;13247;47.504;7.382;2023-06-14T14:00:30;96779.50;;;30.64;26.30
21817;BME280;13247;47.504;7.382;2023-06-14T14:03:15;96786.53;;;29.99;26.60
21817;BME280;13247;47.504;7.382;2023-06-14T14:06:01;96784.25;;;28.88;28.45
21817;BME280;13247;47.504;7.382;2023-06-14T14:08:46;96782.34;;;28.41;29.79
21817;BME280;13247;47.504;7.382;2023-06-14T14:11:31;96772.06;;;29.00;28.56
21817;BME280;13247;47.504;7.382;2023-06-14T14:14:17;96773.50;;;29.49;28.81
21817;BME280;13247;47.504;7.382;2023-06-14T14:17:02;96774.56;;;29.93;27.65
21817;BME280;13247;47.504;7.382;2023-06-14T14:19:47;96769.38;;;28.92;29.48
21817;BME280;13247;47.504;7.382;2023-06-14T14:22:32;96771.66;;;28.72;28.44
21817;BME280;13247;47.504;7.382;2023-06-14T14:25:16;96774.88;;;29.98;27.70
21817;BME280;13247;47.504;7.382;2023-06-14T14:28:01;96770.53;;;28.58;29.14
21817;BME280;13247;47.504;7.382;2023-06-14T14:30:46;96776.78;;;28.35;29.17
21817;BME280;13247;47.504;7.382;2023-06-14T14:33:32;96778.13;;;28.39;29.69
21817;BME280;13247;47.504;7.382;2023-06-14T14:36:16;96783.06;;;28.19;29.60
21817;BME280;13247;47.504;7.382;2023-06-14T14:39:01;96779.53;;;28.11;30.41
21817;BME280;13247;47.504;7.382;2023-06-14T14:41:46;96774.44;;;28.08;29.81
21817;BME280;13247;47.504;7.382;2023-06-14T14:44:30;96778.97;;;28.39;29.63
21817;BME280;13247;47.504;7.382;2023-06-14T14:47:15;96769.03;;;28.95;27.78
21817;BME280;13247;47.504;7.382;2023-06-14T14:49:59;96772.44;;;28.89;28.79